Time;durP1;ratioP1;P1;durP2;ratioP2;P2;SDS_P1;SDS_P2;PMS_P1;PMS_P2;Temp;Humidity;BMP_temperature;BMP_pressure;BME280_temperature;BME280_humidity;BME280_pressure;Samples;Min_cycle;Max_cycle;Signal;HPM_P1;HPM_P2
2022/10/30 00:02:06;;;;;;;0.10;0.10;;;;;;;16.44;69.48;101710.44;5073783;28;20025;-78
2022/10/30 00:04:32;;;;;;;0.35;0.35;;;;;;;16.42;69.61;101706.06;5076219;28;20047;-78
2022/10/30 00:06:58;;;;;;;0.10;0.10;;;;;;;16.42;69.19;101701.56;5078067;28;20013;-78
2022/10/30 00:09:24;;;;;;;1.45;1.35;;;;;;;16.39;69.31;101696.34;5078729;28;20146;-78
2022/10/30 00:11:50;;;;;;;0.10;0.10;;;;;;;16.38;69.47;101699.06;5078081;28;20392;-79
2022/10/30 00:14:17;;;;;;;0.10;0.10;;;;;;;16.34;69.29;101698.28;5076981;28;20241;-78
2022/10/30 00:16:43;;;;;;;0.10;0.10;;;;;;;16.31;69.27;101695.69;5075853;28;20036;-79
2022/10/30 00:19:09;;;;;;;3.15;1.88;;;;;;;16.29;69.25;101700.22;5072720;28;20104;-78
2022/10/30 00:21:35;;;;;;;0.10;0.10;;;;;;;16.26;69.61;101701.19;5072599;28;20024;-78
2022/10/30 00:24:01;;;;;;;0.40;0.40;;;;;;;16.26;69.39;101694.94;5076124;28;20032;-79
2022/10/30 00:26:27;;;;;;;0.30;0.30;;;;;;;16.25;69.69;101698.53;5081847;28;20114;-78
2022/10/30 00:28:56;;;;;;;0.38;0.38;;;;;;;16.24;69.96;101694.16;5077186;28;20031;-79
2022/10/30 00:31:22;;;;;;;0.10;0.10;;;;;;;16.23;69.72;101695.06;5082464;28;20054;-79
2022/10/30 00:33:50;;;;;;;0.10;0.10;;;;;;;16.22;69.81;101699.50;5079819;28;20027;-79
2022/10/30 00:36:16;;;;;;;0.10;0.10;;;;;;;16.21;69.30;101702.25;5087676;28;20032;-79
2022/10/30 00:38:42;;;;;;;0.68;0.68;;;;;;;16.20;69.86;101704.06;5088563;28;20028;-79
2022/10/30 00:41:14;;;;;;;0.13;0.13;;;;;;;16.21;69.67;101702.25;5085769;28;20300;-79
2022/10/30 00:43:41;;;;;;;0.10;0.10;;;;;;;16.16;69.64;101705.94;5085007;28;20560;-79
2022/10/30 00:48:58;;;;;;;0.35;0.35;;;;;;;16.13;69.90;101706.00;5090879;27;20427;-80
2022/10/30 00:51:26;;;;;;;0.40;0.40;;;;;;;16.09;69.97;101715.06;5087612;28;20040;-80
2022/10/30 00:53:54;;;;;;;0.10;0.10;;;;;;;16.08;69.89;101718.63;5095201;28;20118;-80
2022/10/30 00:56:22;;;;;;;0.10;0.10;;;;;;;16.07;69.85;101716.88;5094764;28;20027;-80
2022/10/30 00:58:56;;;;;;;0.30;0.30;;;;;;;16.07;69.79;101711.53;5086987;28;20038;-80
2022/10/30 01:01:25;;;;;;;0.65;0.43;;;;;;;16.06;69.98;101709.78;5091818;28;20115;-80
2022/10/30 01:03:57;;;;;;;0.10;0.10;;;;;;;16.08;69.80;101705.28;5087148;28;20035;-80
2022/10/30 01:06:23;;;;;;;0.10;0.10;;;;;;;16.05;69.93;101705.38;5088946;28;20036;-80
2022/10/30 01:08:52;;;;;;;0.30;0.30;;;;;;;16.06;69.92;101706.25;5087295;28;20028;-80
2022/10/30 01:11:18;;;;;;;0.10;0.10;;;;;;;16.06;69.95;101707.09;5090546;28;20111;-80
2022/10/30 01:13:48;;;;;;;0.10;0.10;;;;;;;16.06;70.17;101715.13;5089760;28;20062;-80
2022/10/30 01:24:45;;;;;;;0.10;0.10;;;;;;;16.10;70.21;101727.50;5106428;27;20412;-80
2022/10/30 01:33:41;;;;;;;0.10;0.10;;;;;;;16.16;69.91;101721.09;5065151;28;20422;-81
2022/10/30 01:36:18;;;;;;;0.10;0.10;;;;;;;16.12;70.32;101720.28;5048844;28;20025;-80
2022/10/30 01:38:50;;;;;;;0.75;0.75;;;;;;;16.11;70.03;101726.59;5047331;28;20059;-80
2022/10/30 01:41:17;;;;;;;0.10;0.10;;;;;;;16.09;70.15;101728.41;5048270;28;20029;-80
2022/10/30 01:43:46;;;;;;;0.10;0.10;;;;;;;16.09;70.04;101725.75;5047049;28;20037;-80
2022/10/30 01:46:30;;;;;;;0.10;0.10;;;;;;;16.13;70.04;101724.72;5048438;28;20058;-80
2022/10/30 01:49:22;;;;;;;0.93;0.93;;;;;;;16.10;70.16;101724.81;5050821;28;20400;-80
2022/10/30 01:52:28;;;;;;;0.20;0.20;;;;;;;16.13;69.84;101731.88;5047099;28;20359;-81
2022/10/30 01:55:25;;;;;;;0.10;0.10;;;;;;;16.10;69.97;101732.84;5041933;28;20037;-80
2022/10/30 01:58:03;;;;;;;0.10;0.10;;;;;;;16.07;70.26;101732.91;5045600;28;20036;-80
2022/10/30 02:00:29;;;;;;;0.10;0.10;;;;;;;16.05;70.00;101732.09;5044715;28;20408;-80
2022/10/30 02:02:55;;;;;;;0.10;0.10;;;;;;;16.03;70.07;101725.91;5048676;28;20498;-81
2022/10/30 02:08:17;;;;;;;7.85;0.35;;;;;;;16.01;70.12;101733.09;5070995;27;20410;-80
2022/10/30 02:10:45;;;;;;;0.10;0.10;;;;;;;16.00;70.16;101737.56;5074485;28;20020;-80
2022/10/30 02:13:12;;;;;;;0.10;0.10;;;;;;;15.97;70.09;101737.66;5077103;28;20071;-80
2022/10/30 02:15:39;;;;;;;0.70;0.70;;;;;;;15.95;70.01;101739.50;5075129;28;20438;-80
2022/10/30 02:18:06;;;;;;;0.20;0.20;;;;;;;15.94;70.09;101739.56;5066188;28;20033;-80
2022/10/30 02:20:32;;;;;;;0.10;0.10;;;;;;;15.92;70.52;101749.41;5071123;28;20527;-80
2022/10/30 02:22:58;;;;;;;0.10;0.10;;;;;;;15.90;70.36;101740.53;5073333;28;20033;-80
2022/10/30 02:25:24;;;;;;;0.10;0.10;;;;;;;15.87;70.38;101738.84;5072482;28;20021;-80
2022/10/30 02:27:50;;;;;;;3.08;1.30;;;;;;;15.84;70.52;101745.16;5062957;28;20060;-80
2022/10/30 02:30:16;;;;;;;0.08;0.08;;;;;;;15.81;70.22;101737.19;5068453;28;20028;-80
2022/10/30 02:32:43;;;;;;;0.10;0.10;;;;;;;15.76;70.54;101728.41;5068885;28;20037;-80
2022/10/30 02:35:09;;;;;;;0.10;0.10;;;;;;;15.73;70.37;101736.53;5069826;28;20507;-80
2022/10/30 02:37:35;;;;;;;0.43;0.43;;;;;;;15.71;70.40;101741.00;5066170;28;20072;-80
2022/10/30 02:40:03;;;;;;;0.10;0.10;;;;;;;15.70;70.72;101739.25;5076198;28;20040;-80
2022/10/30 02:42:29;;;;;;;0.32;0.32;;;;;;;15.66;70.50;101740.28;5074978;28;20041;-80
2022/10/30 02:44:55;;;;;;;0.10;0.10;;;;;;;15.64;70.69;101740.31;5071144;28;20039;-80
2022/10/30 02:47:22;;;;;;;1.20;0.93;;;;;;;15.62;70.55;101742.13;5067652;28;20071;-80
2022/10/30 02:49:48;;;;;;;0.10;0.10;;;;;;;15.61;70.67;101742.19;5066756;28;20530;-80
2022/10/30 02:52:14;;;;;;;0.22;0.22;;;;;;;15.59;70.84;101741.34;5072214;28;20033;-80
2022/10/30 02:54:40;;;;;;;0.10;0.10;;;;;;;15.56;70.65;101733.44;5070987;28;20036;-80
2022/10/30 02:57:07;;;;;;;0.17;0.17;;;;;;;15.54;70.79;101733.47;5068428;28;20042;-80
2022/10/30 02:59:33;;;;;;;0.77;0.70;;;;;;;15.52;70.79;101735.31;5069772;28;20074;-80
2022/10/30 03:01:59;;;;;;;0.10;0.10;;;;;;;15.50;70.68;101734.44;5067876;28;20064;-80
2022/10/30 03:04:25;;;;;;;0.10;0.10;;;;;;;15.49;70.60;101741.59;5071999;28;20447;-80
2022/10/30 03:06:51;;;;;;;0.10;0.10;;;;;;;15.46;70.63;101730.13;5070496;28;20032;-80
2022/10/30 03:09:18;;;;;;;0.10;0.10;;;;;;;15.44;70.91;101742.63;5065854;28;20033;-80
2022/10/30 03:11:44;;;;;;;0.13;0.13;;;;;;;15.40;70.67;101743.63;5071417;28;20371;-80
2022/10/30 03:14:10;;;;;;;0.10;0.10;;;;;;;15.37;70.71;101741.91;5068519;28;20547;-80
2022/10/30 03:16:37;;;;;;;0.10;0.10;;;;;;;15.33;70.89;101742.94;5066309;28;20047;-80
2022/10/30 03:19:03;;;;;;;0.10;0.10;;;;;;;15.30;70.56;101741.22;5057258;28;20033;-80
2022/10/30 03:21:29;;;;;;;0.17;0.17;;;;;;;15.28;70.70;101736.81;5052326;28;20040;-80
2022/10/30 03:23:56;;;;;;;0.10;0.10;;;;;;;15.24;71.06;101735.13;5053131;28;20027;-80
2022/10/30 03:26:22;;;;;;;0.10;0.10;;;;;;;15.22;70.90;101726.31;5056128;28;20032;-80
2022/10/30 03:28:48;;;;;;;0.10;0.10;;;;;;;15.18;70.87;101725.50;5062352;28;20090;-80
2022/10/30 03:31:17;;;;;;;0.73;0.73;;;;;;;15.16;70.96;101728.19;5051641;28;20410;-80
2022/10/30 03:33:46;;;;;;;0.35;0.35;;;;;;;15.16;70.84;101728.19;5059225;28;20031;-80
2022/10/30 03:36:13;;;;;;;0.10;0.10;;;;;;;15.13;71.25;101719.41;5060546;28;20158;-80
2022/10/30 03:38:40;;;;;;;0.10;0.10;;;;;;;15.11;70.98;101715.88;5054249;28;20035;-80
2022/10/30 03:41:07;;;;;;;0.05;0.05;;;;;;;15.07;71.06;101723.09;5053367;28;20484;-80
2022/10/30 03:43:33;;;;;;;0.63;0.63;;;;;;;15.05;70.92;101727.56;5062525;28;20029;-80
2022/10/30 03:45:59;;;;;;;0.65;0.65;;;;;;;15.04;71.20;101733.81;5057944;28;20404;-80
2022/10/30 03:48:28;;;;;;;0.20;0.20;;;;;;;15.06;71.09;101736.47;5056275;28;20035;-79
2022/10/30 03:50:55;;;;;;;0.10;0.10;;;;;;;15.08;71.31;101734.63;5063638;28;20028;-80
2022/10/30 03:53:22;;;;;;;0.20;0.20;;;;;;;15.07;71.15;101732.91;5054922;28;20036;-80
2022/10/30 03:55:49;;;;;;;0.20;0.20;;;;;;;15.06;71.15;101728.47;5057905;28;20043;-80
2022/10/30 03:58:15;;;;;;;0.20;0.20;;;;;;;15.06;71.10;101729.34;5052463;28;20033;-80
2022/10/30 04:00:41;;;;;;;0.20;0.20;;;;;;;15.05;71.29;101722.25;5051879;28;20391;-80
2022/10/30 04:03:09;;;;;;;0.20;0.20;;;;;;;15.02;71.50;101731.19;5064101;28;20045;-80
2022/10/30 04:05:36;;;;;;;0.10;0.10;;;;;;;15.01;71.42;101723.25;5055693;28;20108;-80
2022/10/30 04:08:06;;;;;;;0.20;0.20;;;;;;;15.00;71.51;101733.06;5054182;28;20130;-80
2022/10/30 04:10:33;;;;;;;0.10;0.10;;;;;;;14.99;71.50;101741.06;5055095;28;20060;-80
2022/10/30 04:13:02;;;;;;;0.10;0.10;;;;;;;14.98;71.35;101750.88;5055578;28;20029;-80
2022/10/30 04:15:29;;;;;;;0.25;0.25;;;;;;;14.96;71.73;101741.16;5060375;28;20028;-80
2022/10/30 04:17:55;;;;;;;0.10;0.10;;;;;;;14.96;71.47;101751.84;5049618;28;20255;-80
2022/10/30 04:20:23;;;;;;;0.65;0.65;;;;;;;14.93;71.52;101746.56;5054944;28;20037;-80
2022/10/30 04:22:54;;;;;;;0.15;0.15;;;;;;;14.91;71.29;101751.06;5055180;28;20029;-80
2022/10/30 04:25:20;;;;;;;0.10;0.10;;;;;;;14.88;71.45;101744.88;5054265;28;20021;-80
2022/10/30 04:27:48;;;;;;;10.15;0.75;;;;;;;14.86;71.56;101741.34;5054552;28;20590;-79
2022/10/30 04:30:14;;;;;;;0.10;0.10;;;;;;;14.85;71.51;101739.63;5049706;28;20603;-80
2022/10/30 04:32:49;;;;;;;0.10;0.10;;;;;;;14.85;71.47;101742.31;5057722;28;20024;-80
2022/10/30 04:35:18;;;;;;;0.10;0.10;;;;;;;14.79;71.39;101755.78;5051798;28;20520;-80
2022/10/30 04:40:32;;;;;;;0.85;0.85;;;;;;;14.76;71.38;101741.63;5087558;27;20386;-80
2022/10/30 04:42:58;;;;;;;0.15;0.15;;;;;;;14.75;71.33;101747.88;5087017;28;20036;-80
2022/10/30 04:45:25;;;;;;;0.65;0.65;;;;;;;14.73;71.56;101750.59;5075742;28;20516;-80
2022/10/30 04:47:51;;;;;;;0.15;0.15;;;;;;;14.71;71.52;101737.25;5070984;28;20395;-80
2022/10/30 04:50:18;;;;;;;0.10;0.10;;;;;;;14.71;71.35;101733.72;5066705;28;20081;-80
2022/10/30 04:52:44;;;;;;;0.20;0.20;;;;;;;14.70;71.64;101731.97;5066671;28;20191;-79
2022/10/30 04:55:11;;;;;;;0.10;0.10;;;;;;;14.68;71.62;101726.69;5068212;28;20128;-80
2022/10/30 04:57:37;;;;;;;0.10;0.10;;;;;;;14.67;71.85;101718.72;5069415;28;20115;-80
2022/10/30 05:00:05;;;;;;;2.92;1.02;;;;;;;14.66;71.76;101717.81;5066056;28;20017;-80
2022/10/30 05:02:33;;;;;;;0.30;0.30;;;;;;;14.65;71.57;101715.19;5068042;28;20041;-80
2022/10/30 05:04:59;;;;;;;0.13;0.13;;;;;;;14.64;71.74;101716.97;5067702;28;20037;-80
2022/10/30 05:07:25;;;;;;;0.32;0.32;;;;;;;14.64;71.74;101706.28;5070424;28;20037;-80
2022/10/30 05:09:51;;;;;;;0.40;0.40;;;;;;;14.63;71.64;101708.97;5066694;28;20061;-80
2022/10/30 05:12:18;;;;;;;0.20;0.20;;;;;;;14.61;72.01;101701.00;5069323;28;20036;-80
2022/10/30 05:14:44;;;;;;;2.83;0.85;;;;;;;14.63;72.21;101711.66;5069484;28;20078;-80
2022/10/30 05:17:10;;;;;;;0.95;0.95;;;;;;;14.62;72.31;101709.91;5065188;28;20033;-80
2022/10/30 05:19:36;;;;;;;0.35;0.35;;;;;;;14.64;72.58;101713.41;5067393;28;20107;-80
2022/10/30 05:22:03;;;;;;;0.68;0.68;;;;;;;14.66;72.34;101709.81;5066260;28;20045;-79
2022/10/30 05:24:29;;;;;;;0.13;0.13;;;;;;;14.67;72.60;101716.06;5069021;28;20020;-80
2022/10/30 05:26:55;;;;;;;0.10;0.10;;;;;;;14.67;72.55;101714.25;5067009;28;20035;-80
2022/10/30 05:29:21;;;;;;;1.67;1.55;;;;;;;14.68;72.54;101721.34;5067203;28;20029;-80
2022/10/30 05:31:47;;;;;;;0.17;0.17;;;;;;;14.69;72.39;101730.22;5067078;28;20056;-80
2022/10/30 05:34:13;;;;;;;0.10;0.10;;;;;;;14.68;72.55;101736.47;5068707;28;20035;-80
2022/10/30 05:36:39;;;;;;;0.10;0.10;;;;;;;14.68;72.34;101723.16;5066650;28;20155;-80
2022/10/30 05:39:05;;;;;;;0.20;0.20;;;;;;;14.67;72.39;101727.59;5068897;28;20024;-80
2022/10/30 05:41:31;;;;;;;0.10;0.10;;;;;;;14.65;72.36;101715.19;5068084;28;20029;-80
2022/10/30 05:43:57;;;;;;;0.93;0.93;;;;;;;14.63;72.36;101714.31;5067151;28;20040;-80
2022/10/30 05:46:23;;;;;;;0.10;0.10;;;;;;;14.59;72.32;101724.16;5067138;28;20028;-80
2022/10/30 05:48:50;;;;;;;0.10;0.10;;;;;;;14.57;72.48;101724.22;5066214;28;20032;-80
2022/10/30 05:51:16;;;;;;;0.17;0.17;;;;;;;14.56;72.34;101735.78;5057889;28;20025;-80
2022/10/30 05:53:42;;;;;;;0.20;0.20;;;;;;;14.55;72.46;101733.16;5053712;28;20035;-80
2022/10/30 05:56:08;;;;;;;0.20;0.20;;;;;;;14.53;72.51;101737.66;5051760;28;20037;-80
2022/10/30 05:58:34;;;;;;;0.30;0.30;;;;;;;14.51;72.25;101735.00;5050545;28;20497;-80
2022/10/30 06:01:03;;;;;;;0.70;0.70;;;;;;;14.48;72.48;101732.44;5053699;28;20029;-80
2022/10/30 06:03:29;;;;;;;0.17;0.17;;;;;;;14.46;72.32;101736.91;5056102;28;20410;-80
2022/10/30 06:05:55;;;;;;;0.20;0.20;;;;;;;14.46;72.41;101742.25;5054969;28;20074;-80
2022/10/30 06:08:21;;;;;;;0.17;0.17;;;;;;;14.45;72.48;101745.81;5055030;28;20041;-80
2022/10/30 06:10:47;;;;;;;15.07;3.50;;;;;;;14.44;72.13;101748.53;5054099;28;20040;-80
2022/10/30 06:13:14;;;;;;;0.10;0.10;;;;;;;14.42;72.26;101745.91;5053084;28;20048;-80
2022/10/30 06:15:40;;;;;;;0.10;0.10;;;;;;;14.43;72.24;101747.66;5054958;28;20029;-80
2022/10/30 06:18:06;;;;;;;0.40;0.40;;;;;;;14.44;72.47;101753.84;5055293;28;20107;-79
2022/10/30 06:20:32;;;;;;;0.10;0.10;;;;;;;14.44;72.51;101760.06;5054114;28;20064;-79
2022/10/30 06:23:02;;;;;;;0.10;0.10;;;;;;;14.47;72.87;101764.47;5052501;28;20567;-80
2022/10/30 06:25:32;;;;;;;0.40;0.40;;;;;;;14.48;72.49;101753.75;5054475;28;20032;-80
2022/10/30 06:27:58;;;;;;;0.98;0.98;;;;;;;14.47;72.83;101760.00;5051632;28;20037;-80
2022/10/30 06:30:25;;;;;;;0.10;0.10;;;;;;;14.49;72.68;101747.53;5052280;28;20036;-80
2022/10/30 06:33:01;;;;;;;0.20;0.20;;;;;;;14.54;72.60;101734.06;5052342;28;20048;-80
2022/10/30 06:35:27;;;;;;;0.10;0.10;;;;;;;14.51;72.59;101745.69;5053860;28;20033;-80
2022/10/30 06:37:55;;;;;;;0.82;0.82;;;;;;;14.51;72.42;101745.69;5052887;28;20025;-80
2022/10/30 06:40:22;;;;;;;0.20;0.20;;;;;;;14.53;72.38;101743.00;5050122;28;20031;-80
2022/10/30 06:42:50;;;;;;;0.10;0.10;;;;;;;14.53;72.54;101749.19;5051192;28;20044;-80
2022/10/30 06:45:18;;;;;;;0.20;0.20;;;;;;;14.53;72.59;101765.19;5050933;28;20044;-80
2022/10/30 06:47:44;;;;;;;0.10;0.10;;;;;;;14.54;72.54;101771.41;5054787;28;20060;-80
2022/10/30 06:50:15;;;;;;;0.57;0.57;;;;;;;14.55;72.65;101760.72;5051680;28;20029;-80
2022/10/30 06:52:41;;;;;;;0.20;0.20;;;;;;;14.54;72.89;101756.28;5052048;28;20040;-80
2022/10/30 06:55:08;;;;;;;0.10;0.10;;;;;;;14.56;72.75;101754.44;5052848;28;20064;-80
2022/10/30 06:57:35;;;;;;;0.38;0.38;;;;;;;14.56;72.70;101749.13;5053122;28;20037;-80
2022/10/30 07:00:03;;;;;;;0.10;0.10;;;;;;;14.60;72.79;101744.59;5053092;28;20300;-79
2022/10/30 07:02:29;;;;;;;0.38;0.38;;;;;;;14.63;72.64;101743.66;5054706;28;20037;-79
2022/10/30 07:04:55;;;;;;;0.20;0.20;;;;;;;14.67;72.81;101748.06;5051897;28;20033;-80
2022/10/30 07:07:21;;;;;;;0.10;0.10;;;;;;;14.71;73.13;101744.41;5050710;28;20116;-80
2022/10/30 07:09:47;;;;;;;0.30;0.30;;;;;;;14.74;73.01;101730.97;5053511;28;20112;-80
2022/10/30 07:12:13;;;;;;;0.28;0.28;;;;;;;14.78;73.30;101734.44;5052963;28;20029;-81
2022/10/30 07:14:40;;;;;;;13.15;0.85;;;;;;;14.83;72.94;101721.91;5051704;28;20508;-80
2022/10/30 07:17:06;;;;;;;0.22;0.22;;;;;;;14.88;73.21;101731.53;5053364;28;20028;-80
2022/10/30 07:19:32;;;;;;;0.20;0.20;;;;;;;14.93;73.07;101725.22;5052120;28;20036;-80
2022/10/30 07:21:59;;;;;;;0.10;0.10;;;;;;;14.97;73.17;101725.09;5051359;28;20592;-80
2022/10/30 07:24:25;;;;;;;0.17;0.17;;;;;;;15.03;73.22;101726.75;5052190;28;20063;-81
2022/10/30 07:26:51;;;;;;;0.60;0.60;;;;;;;15.07;73.29;101733.75;5051776;28;20043;-80
2022/10/30 07:29:17;;;;;;;0.10;0.10;;;;;;;15.12;73.29;101742.53;5051455;28;20037;-80
2022/10/30 07:31:46;;;;;;;0.65;0.65;;;;;;;15.20;73.07;101745.00;5049900;28;20036;-80
2022/10/30 07:34:12;;;;;;;1.95;1.55;;;;;;;15.20;73.53;101745.91;5052748;28;20114;-80
2022/10/30 07:36:38;;;;;;;0.10;0.10;;;;;;;15.25;73.30;101747.56;5053263;28;20032;-80
2022/10/30 07:39:04;;;;;;;0.32;0.32;;;;;;;15.28;73.09;101736.81;5054167;28;20480;-80
2022/10/30 07:41:30;;;;;;;0.30;0.30;;;;;;;15.31;72.95;101732.25;5054917;28;20033;-80
2022/10/30 07:43:56;;;;;;;1.60;0.95;;;;;;;15.38;72.87;101743.69;5052235;28;20032;-80
2022/10/30 07:46:22;;;;;;;0.82;0.68;;;;;;;15.40;73.32;101747.16;5051262;28;20040;-79
2022/10/30 07:48:48;;;;;;;0.10;0.10;;;;;;;15.44;72.97;101743.53;5052477;28;20103;-80
2022/10/30 07:51:15;;;;;;;0.65;0.65;;;;;;;15.48;73.02;101750.53;5048631;28;20032;-80
2022/10/30 07:53:41;;;;;;;0.57;0.57;;;;;;;15.54;73.24;101744.16;5049624;28;20029;-80
2022/10/30 07:56:07;;;;;;;0.77;0.25;;;;;;;15.59;73.06;101741.34;5049182;28;20041;-80
2022/10/30 07:58:33;;;;;;;0.68;0.68;;;;;;;15.65;72.88;101741.19;5051309;28;20043;-80
2022/10/30 08:00:59;;;;;;;0.10;0.10;;;;;;;15.71;72.83;101738.34;5053100;28;20037;-80
2022/10/30 08:03:25;;;;;;;0.20;0.20;;;;;;;15.77;72.92;101740.84;5055010;28;20032;-79
2022/10/30 08:05:51;;;;;;;0.20;0.20;;;;;;;15.82;73.25;101741.63;5051908;28;20036;-80
2022/10/30 08:08:17;;;;;;;5.07;1.17;;;;;;;15.89;72.86;101737.00;5050322;28;20028;-80
2022/10/30 08:10:43;;;;;;;6.00;0.68;;;;;;;15.96;72.88;101738.59;5051420;28;20040;-80
2022/10/30 08:13:09;;;;;;;1.00;1.00;;;;;;;16.01;72.65;101739.34;5049715;28;20029;-80
2022/10/30 08:15:38;;;;;;;0.85;0.85;;;;;;;16.09;72.87;101746.25;5051078;28;20065;-80
2022/10/30 08:18:04;;;;;;;0.10;0.10;;;;;;;16.14;72.96;101737.19;5049230;28;20029;-79
2022/10/30 08:20:30;;;;;;;1.40;1.30;;;;;;;16.20;72.50;101741.47;5052498;28;20048;-79
2022/10/30 08:22:57;;;;;;;1.30;1.20;;;;;;;16.28;72.85;101747.47;5050600;28;20719;-79
2022/10/30 08:25:26;;;;;;;0.50;0.50;;;;;;;16.34;73.45;101757.13;5047810;28;20032;-80
2022/10/30 08:30:33;;;;;;;0.38;0.38;;;;;;;16.55;72.85;101754.69;5108674;27;20414;-80
2022/10/30 08:33:02;;;;;;;0.17;0.17;;;;;;;16.63;72.74;101768.72;5096777;28;20114;-79
2022/10/30 08:35:29;;;;;;;0.50;0.50;;;;;;;16.73;72.67;101770.19;5096980;28;20447;-80
2022/10/30 08:37:56;;;;;;;0.10;0.10;;;;;;;16.81;72.80;101761.94;5083406;28;20029;-79
2022/10/30 08:40:22;;;;;;;0.25;0.25;;;;;;;16.93;72.21;101745.50;5088834;28;20040;-80
2022/10/30 08:42:51;;;;;;;0.95;0.95;;;;;;;17.05;72.39;101754.09;5082401;28;20028;-79
2022/10/30 08:45:17;;;;;;;0.10;0.10;;;;;;;17.17;72.28;101752.78;5084451;28;20032;-80
2022/10/30 08:47:43;;;;;;;0.73;0.70;;;;;;;17.31;72.15;101747.84;5091187;28;20103;-80
2022/10/30 08:50:10;;;;;;;0.20;0.20;;;;;;;17.45;72.00;101732.16;5087405;28;20032;-79
2022/10/30 08:52:36;;;;;;;0.10;0.10;;;;;;;17.60;71.77;101743.28;5087028;28;20518;-80
2022/10/30 08:55:02;;;;;;;0.17;0.17;;;;;;;17.70;71.58;101735.81;5085702;28;20063;-79
2022/10/30 08:57:33;;;;;;;0.20;0.20;;;;;;;17.82;71.59;101742.50;5089987;28;20090;-80
2022/10/30 08:59:59;;;;;;;0.10;0.10;;;;;;;17.92;71.06;101746.63;5088123;28;20035;-79
2022/10/30 09:02:25;;;;;;;0.10;0.10;;;;;;;18.03;71.18;101743.56;5090190;28;20484;-80
2022/10/30 09:04:52;;;;;;;0.52;0.52;;;;;;;18.13;70.86;101739.63;5089329;28;20032;-79
2022/10/30 09:07:18;;;;;;;0.85;0.85;;;;;;;18.20;70.71;101745.63;5089329;28;20036;-79
2022/10/30 09:09:44;;;;;;;0.25;0.25;;;;;;;18.29;70.61;101745.28;5092803;28;20025;-79
2022/10/30 09:12:10;;;;;;;0.15;0.15;;;;;;;18.38;70.36;101744.94;5089746;28;20028;-80
2022/10/30 09:14:36;;;;;;;0.55;0.55;;;;;;;18.49;70.35;101740.94;5089011;28;20032;-79
2022/10/30 09:17:02;;;;;;;0.10;0.10;;;;;;;18.59;70.18;101750.38;5088154;28;20496;-80
2022/10/30 09:19:28;;;;;;;3.70;2.88;;;;;;;18.64;69.59;101755.56;5090638;28;20032;-79
2022/10/30 09:21:54;;;;;;;0.65;0.65;;;;;;;18.74;69.38;101755.16;5088851;28;20020;-79
2022/10/30 09:24:20;;;;;;;0.20;0.20;;;;;;;18.83;69.50;101758.41;5082727;28;20028;-80
2022/10/30 09:26:46;;;;;;;0.10;0.10;;;;;;;18.88;69.37;101751.91;5090319;28;20084;-79
2022/10/30 09:29:13;;;;;;;1.58;0.43;;;;;;;18.88;68.34;101756.44;5086017;28;20050;-79
2022/10/30 09:31:39;;;;;;;0.55;0.55;;;;;;;18.98;69.08;101749.78;5087564;28;20058;-79
2022/10/30 09:34:05;;;;;;;0.73;0.73;;;;;;;19.05;68.88;101753.06;5087813;28;20115;-79
2022/10/30 09:36:31;;;;;;;0.30;0.30;;;;;;;19.07;68.74;101751.19;5088357;28;20062;-80
2022/10/30 09:38:58;;;;;;;0.15;0.15;;;;;;;19.12;68.94;101745.66;5087800;28;20028;-78
2022/10/30 09:41:52;;;;;;;4.20;1.77;;;;;;;19.11;68.72;101741.22;5074018;28;20032;-79
2022/10/30 09:44:38;;;;;;;0.17;0.17;;;;;;;19.23;68.48;101738.00;5069230;28;20037;-79
2022/10/30 09:52:54;;;;;;;0.20;0.20;;;;;;;19.45;68.02;101748.72;5104603;27;20404;-80
2022/10/30 09:55:45;;;;;;;0.10;0.10;;;;;;;19.47;67.44;101745.97;5092485;28;20028;-79
2022/10/30 09:58:23;;;;;;;0.95;0.95;;;;;;;19.55;67.77;101738.41;5089918;28;20055;-79
2022/10/30 10:00:56;;;;;;;2.28;1.65;;;;;;;19.63;67.66;101741.66;5094942;28;20028;-79
2022/10/30 10:06:16;;;;;;;0.10;0.10;;;;;;;19.90;67.77;101753.97;5077266;28;20383;-79
2022/10/30 10:08:49;;;;;;;0.25;0.25;;;;;;;19.98;67.73;101744.63;5065959;28;20028;-79
2022/10/30 10:11:22;;;;;;;0.20;0.20;;;;;;;20.10;66.99;101750.38;5065136;28;20029;-79
2022/10/30 10:16:35;;;;;;;0.73;0.68;;;;;;;20.21;65.74;101740.00;5049073;28;20408;-77
2022/10/30 10:19:19;;;;;;;0.20;0.20;;;;;;;20.38;66.68;101746.44;5045302;28;20029;-79
2022/10/30 10:24:33;;;;;;;0.10;0.10;;;;;;;20.54;65.28;101744.75;5107258;27;20387;-77
2022/10/30 10:30:15;;;;;;;0.20;0.20;;;;;;;20.74;64.69;101745.66;5098168;27;20600;-77
2022/10/30 10:32:56;;;;;;;0.10;0.10;;;;;;;20.73;64.15;101746.59;5106020;28;20035;-79
2022/10/30 10:38:36;;;;;;;2.08;0.68;;;;;;;20.82;62.38;101749.72;5089970;27;20885;-80
2022/10/30 10:44:16;;;;;;;0.20;0.20;;;;;;;20.95;63.75;101736.50;5060710;28;20414;-79
2022/10/30 10:47:09;;;;;;;0.10;0.10;;;;;;;21.13;63.71;101731.13;5042666;28;20041;-79
2022/10/30 10:50:06;;;;;;;0.10;0.10;;;;;;;20.85;64.75;101732.53;5038405;28;20056;-80
2022/10/30 10:52:40;;;;;;;0.35;0.35;;;;;;;20.88;64.41;101721.59;5046587;28;20037;-79
2022/10/30 10:55:19;;;;;;;0.10;0.10;;;;;;;21.00;64.92;101720.97;5040503;28;20025;-79
2022/10/30 10:57:46;;;;;;;0.73;0.73;;;;;;;21.11;63.95;101712.38;5045083;28;20084;-80
2022/10/30 11:03:14;;;;;;;0.10;0.10;;;;;;;21.41;63.81;101702.75;5105143;27;20386;-80
2022/10/30 11:06:06;;;;;;;0.70;0.70;;;;;;;21.45;63.13;101696.28;5098401;28;20042;-79
2022/10/30 11:08:34;;;;;;;0.80;0.80;;;;;;;21.49;62.60;101697.84;5105312;28;20085;-80
2022/10/30 11:11:04;;;;;;;1.65;1.33;;;;;;;21.56;62.66;101695.72;5108036;28;20024;-80
2022/10/30 11:13:36;;;;;;;0.32;0.32;;;;;;;21.65;62.05;101701.50;5103493;28;20036;-79
2022/10/30 11:19:01;;;;;;;1.48;0.70;;;;;;;21.83;61.40;101696.06;5091991;27;20123;-81
2022/10/30 11:21:32;;;;;;;0.10;0.10;;;;;;;21.85;62.87;101696.88;5108367;28;20036;-81
2022/10/30 11:23:58;;;;;;;0.10;0.10;;;;;;;21.93;62.68;101700.03;5094804;28;20051;-80
2022/10/30 11:26:27;;;;;;;0.20;0.20;;;;;;;21.96;61.71;101693.59;5091801;28;20274;-81
2022/10/30 11:28:58;;;;;;;0.30;0.30;;;;;;;22.00;62.42;101689.78;5105540;28;20032;-81
2022/10/30 11:36:55;;;;;;;0.10;0.10;;;;;;;21.96;63.12;101672.88;5061066;27;20425;-82
2022/10/30 11:39:27;;;;;;;0.00;0.00;;;;;;;21.98;62.62;101681.78;5056349;28;20056;-82
2022/10/30 11:44:41;;;;;;;0.47;0.47;;;;;;;21.96;62.79;101678.28;5059800;27;20415;-81
2022/10/30 11:47:10;;;;;;;0.10;0.10;;;;;;;21.93;62.59;101678.47;5058723;27;21283;-82
2022/10/30 11:49:47;;;;;;;0.10;0.10;;;;;;;21.96;63.26;101680.97;5063609;27;20413;-81
2022/10/30 11:52:17;;;;;;;0.17;0.13;;;;;;;21.95;63.29;101675.66;5050242;28;20029;-81
2022/10/30 11:54:49;;;;;;;0.10;0.10;;;;;;;21.98;63.02;101673.69;5053425;28;20124;-81
2022/10/30 11:57:39;;;;;;;0.10;0.10;;;;;;;22.05;63.33;101673.34;5049500;27;20024;-82
2022/10/30 12:00:14;;;;;;;0.10;0.10;;;;;;;22.01;63.67;101674.44;5048550;28;20039;-81
2022/10/30 12:02:42;;;;;;;0.00;0.00;;;;;;;22.01;63.84;101667.25;5057582;27;20517;-81
2022/10/30 12:05:31;;;;;;;0.17;0.17;;;;;;;22.06;62.41;101667.00;5056397;28;20439;-81
2022/10/30 12:08:18;;;;;;;0.40;0.40;;;;;;;22.09;63.35;101674.91;5054176;27;20044;-81
2022/10/30 12:11:03;;;;;;;0.00;0.00;;;;;;;22.07;63.37;101675.00;5051388;27;20045;-82
2022/10/30 12:13:36;;;;;;;0.03;0.03;;;;;;;22.07;63.40;101676.81;5049170;28;20043;-82
2022/10/30 12:16:06;;;;;;;0.10;0.10;;;;;;;22.03;63.34;101672.53;5050898;27;20033;-81
2022/10/30 12:18:33;;;;;;;1.65;1.33;;;;;;;22.00;63.40;101664.63;5053471;28;20173;-81
2022/10/30 12:21:01;;;;;;;0.35;0.35;;;;;;;21.98;62.87;101680.88;5059455;27;20053;-81
2022/10/30 12:23:28;;;;;;;0.47;0.47;;;;;;;21.96;63.26;101677.41;5086276;27;20110;-81
2022/10/30 12:25:58;;;;;;;0.82;0.75;;;;;;;21.94;62.90;101679.31;5055193;27;20032;-81
2022/10/30 12:28:28;;;;;;;0.00;0.00;;;;;;;21.93;62.94;101673.06;5049067;28;20037;-80
2022/10/30 12:31:00;;;;;;;0.10;0.10;;;;;;;21.95;63.20;101667.56;5056618;28;20025;-83
2022/10/30 12:36:29;;;;;;;0.15;0.15;;;;;;;21.95;63.04;101671.13;5088277;27;20936;-81
2022/10/30 12:39:08;;;;;;;0.10;0.10;;;;;;;21.94;63.11;101666.72;5087390;28;20043;-81